createdAt,value
2023-11-07T00:02:01.651Z,99829.56
2023-11-07T00:04:28.348Z,99832.13
2023-11-07T00:06:54.867Z,99843.41
2023-11-07T00:09:21.236Z,99847.72
2023-11-07T00:11:47.672Z,99845.19
2023-11-07T00:14:14.040Z,99840.88
2023-11-07T00:16:40.392Z,99842.59
2023-11-07T00:19:07.233Z,99842.47
2023-11-07T00:21:34.794Z,99846.88
2023-11-07T00:24:01.315Z,99840.03
2023-11-07T00:26:28.048Z,99853.75
2023-11-07T00:28:54.464Z,99853.72
2023-11-07T00:31:20.856Z,99851.16
2023-11-07T00:33:47.365Z,99852.00
2023-11-07T00:36:14.199Z,99857.34
2023-11-07T00:38:40.620Z,99862.41
2023-11-07T00:41:07.984Z,99853.78
2023-11-07T00:43:36.296Z,99869.44
2023-11-07T00:46:04.640Z,99872.03
2023-11-07T00:48:31.099Z,99866.00
2023-11-07T00:50:57.822Z,99879.91
2023-11-07T00:53:24.362Z,99882.59
2023-11-07T00:55:51.143Z,99878.44
2023-11-07T00:58:21.537Z,99882.75
2023-11-07T01:00:47.837Z,99877.63
2023-11-07T01:03:14.487Z,99878.38
2023-11-07T01:05:41.153Z,99875.75
2023-11-07T01:08:07.795Z,99880.97
2023-11-07T01:10:34.186Z,99886.16
2023-11-07T01:13:00.687Z,99879.22
2023-11-07T01:15:27.375Z,99885.34
2023-11-07T01:17:54.757Z,99880.28
2023-11-07T01:20:21.373Z,99881.13
2023-11-07T01:22:47.817Z,99883.69
2023-11-07T01:25:14.318Z,99880.06
2023-11-07T01:27:40.768Z,99876.69
2023-11-07T01:30:08.385Z,99885.41
2023-11-07T01:32:35.085Z,99887.06
2023-11-07T01:35:01.452Z,99876.75
2023-11-07T01:37:28.549Z,99875.09
2023-11-07T01:39:55.001Z,99880.28
2023-11-07T01:42:21.675Z,99880.19
2023-11-07T01:44:52.813Z,99881.81
2023-11-07T01:47:21.603Z,99886.16
2023-11-07T01:49:49.095Z,99880.22
2023-11-07T01:52:18.574Z,99882.94
2023-11-07T01:54:45.936Z,99880.34
2023-11-07T01:57:13.778Z,99882.94
2023-11-07T01:59:41.332Z,99888.28
2023-11-07T02:02:14.239Z,99883.88
2023-11-07T02:04:41.497Z,99883.03
2023-11-07T02:07:08.465Z,99884.00
2023-11-07T02:09:34.955Z,99882.31
2023-11-07T02:12:01.620Z,99877.03
2023-11-07T02:14:35.095Z,99883.09
2023-11-07T02:17:01.726Z,99880.34
2023-11-07T02:19:28.289Z,99875.31
2023-11-07T02:22:00.097Z,99875.38
2023-11-07T02:24:30.264Z,99890.09
2023-11-07T02:26:58.277Z,99874.31
2023-11-07T02:29:24.915Z,99891.66
2023-11-07T02:31:51.633Z,99887.44
2023-11-07T02:34:18.948Z,99888.16
2023-11-07T02:36:45.771Z,99893.34
2023-11-07T02:39:13.930Z,99893.28
2023-11-07T02:41:41.380Z,99893.34
2023-11-07T02:44:07.861Z,99902.06
2023-11-07T02:46:34.208Z,99902.06
2023-11-07T02:49:00.715Z,99907.25
2023-11-07T02:51:27.516Z,99907.31
2023-11-07T02:53:54.366Z,99912.56
2023-11-07T02:56:26.809Z,99900.53
2023-11-07T02:58:56.490Z,99902.13
2023-11-07T03:01:23.193Z,99897.69
2023-11-07T03:03:56.285Z,99898.69
2023-11-07T03:06:22.963Z,99909.00
2023-11-07T03:08:49.632Z,99900.44
2023-11-07T03:11:16.274Z,99906.53
2023-11-07T03:13:42.644Z,99898.84
2023-11-07T03:16:09.424Z,99905.69
2023-11-07T03:18:35.931Z,99896.22
2023-11-07T03:21:04.862Z,99899.81
2023-11-07T03:23:31.351Z,99907.53
2023-11-07T03:25:57.939Z,99909.16
2023-11-07T03:28:25.144Z,99901.41
2023-11-07T03:30:51.608Z,99910.06
2023-11-07T03:33:18.648Z,99904.84
2023-11-07T03:35:47.712Z,99911.81
2023-11-07T03:38:14.914Z,99919.53
2023-11-07T03:40:41.352Z,99919.59
2023-11-07T03:43:08.932Z,99921.28
2023-11-07T03:45:35.803Z,99917.66
2023-11-07T03:48:02.520Z,99927.13
2023-11-07T03:50:30.922Z,99938.34
2023-11-07T03:52:57.675Z,99938.41
2023-11-07T03:55:24.330Z,99932.22
2023-11-07T03:57:50.879Z,99930.63
2023-11-07T04:00:17.579Z,99925.50
2023-11-07T04:02:44.062Z,99930.72
2023-11-07T04:05:11.726Z,99935.81
2023-11-07T04:07:38.323Z,99934.97
2023-11-07T04:10:06.704Z,99950.50
2023-11-07T04:12:36.656Z,99959.13
2023-11-07T04:15:05.490Z,99961.75
2023-11-07T04:17:31.963Z,99960.81
2023-11-07T04:19:58.495Z,99963.41
2023-11-07T04:22:25.208Z,99964.38
2023-11-07T04:24:52.175Z,99956.59
2023-11-07T04:27:18.902Z,99963.34
2023-11-07T04:29:45.486Z,99965.94
2023-11-07T04:32:13.347Z,99966.69
2023-11-07T04:34:39.991Z,99970.97
2023-11-07T04:37:06.796Z,99972.72
2023-11-07T04:39:33.617Z,99965.81
2023-11-07T04:42:00.302Z,99960.53
2023-11-07T04:44:26.960Z,99964.03
2023-11-07T04:46:53.828Z,99964.78
2023-11-07T04:49:20.653Z,99981.16
2023-11-07T04:51:47.742Z,99975.13
2023-11-07T04:54:14.490Z,99969.91
2023-11-07T04:56:41.217Z,99972.59
2023-11-07T04:59:07.634Z,99973.38
2023-11-07T05:01:33.964Z,99963.00
2023-11-07T05:04:00.972Z,99968.16
2023-11-07T05:06:29.115Z,99970.84
2023-11-07T05:08:55.852Z,99975.13
2023-11-07T05:11:22.587Z,99974.34
2023-11-07T05:13:49.444Z,99970.94
2023-11-07T05:16:15.912Z,99965.81
2023-11-07T05:18:42.547Z,99960.66
2023-11-07T05:21:09.457Z,99962.34
2023-11-07T05:23:36.902Z,99964.94
2023-11-07T05:26:04.895Z,99970.13
2023-11-07T05:28:31.372Z,99958.91
2023-11-07T05:30:58.064Z,99962.28
2023-11-07T05:33:24.606Z,99956.25
2023-11-07T05:35:51.144Z,99960.53
2023-11-07T05:38:17.702Z,99962.28
2023-11-07T05:40:44.323Z,99966.75
2023-11-07T05:43:10.704Z,99965.06
2023-11-07T05:45:37.133Z,99964.19
2023-11-07T05:48:04.884Z,99966.72
2023-11-07T05:50:31.812Z,99964.19
2023-11-07T05:53:00.265Z,99978.00
2023-11-07T05:55:27.240Z,99975.34
2023-11-07T05:57:53.681Z,99976.09
2023-11-07T06:00:21.594Z,99981.31
2023-11-07T06:02:48.294Z,99972.59
2023-11-07T06:05:15.004Z,99977.81
2023-11-07T06:07:41.673Z,99974.34
2023-11-07T06:10:09.004Z,99981.16
2023-11-07T06:12:35.610Z,99988.00
2023-11-07T06:15:02.745Z,99989.84
2023-11-07T06:17:29.514Z,99976.00
2023-11-07T06:19:55.963Z,99982.97
2023-11-07T06:22:22.601Z,99983.06
2023-11-07T06:24:49.213Z,99984.03
2023-11-07T06:27:16.531Z,99984.13
2023-11-07T06:29:44.387Z,99985.25
2023-11-07T06:32:11.314Z,99978.34
2023-11-07T06:34:38.367Z,99982.66
2023-11-07T06:37:05.157Z,99991.34
2023-11-07T06:39:31.509Z,99990.56
2023-11-07T06:41:59.358Z,99986.28
2023-11-07T06:44:27.128Z,99987.00
2023-11-07T06:46:54.614Z,99990.50
2023-11-07T06:49:21.183Z,99989.66
2023-11-07T06:51:48.128Z,99998.28
2023-11-07T06:54:15.194Z,99999.06
2023-11-07T06:56:41.640Z,100005.03
2023-11-07T06:59:08.255Z,100012.72
2023-11-07T07:01:34.722Z,100012.63
2023-11-07T07:04:01.904Z,100013.47
2023-11-07T07:06:30.014Z,100025.50
2023-11-07T07:08:56.541Z,100033.28
2023-11-07T07:11:23.063Z,100034.03
2023-11-07T07:13:49.734Z,100041.78
2023-11-07T07:16:17.567Z,100036.59
2023-11-07T07:18:46.501Z,100037.41
2023-11-07T07:21:13.929Z,100044.25
2023-11-07T07:23:43.371Z,100050.22
2023-11-07T07:26:10.379Z,100047.53
2023-11-07T07:28:40.068Z,100050.16
2023-11-07T07:31:07.748Z,100057.97
2023-11-07T07:33:38.272Z,100064.00
2023-11-07T07:36:06.240Z,100062.94
2023-11-07T07:38:33.344Z,100071.53
2023-11-07T07:40:59.866Z,100078.34
2023-11-07T07:43:28.065Z,100075.81
2023-11-07T07:45:56.396Z,100084.38
2023-11-07T07:48:26.243Z,100082.69
2023-11-07T07:50:52.982Z,100084.50
2023-11-07T07:53:22.044Z,100094.78
2023-11-07T07:55:51.731Z,100097.38
2023-11-07T07:58:21.908Z,100098.19
2023-11-07T08:00:54.178Z,100105.06
2023-11-07T08:03:29.059Z,100117.03
2023-11-07T08:05:55.625Z,100118.59
2023-11-07T08:08:22.207Z,100115.97
2023-11-07T08:10:50.169Z,100105.66
2023-11-07T08:13:18.166Z,100110.00
2023-11-07T08:15:45.122Z,100120.44
2023-11-07T08:18:12.035Z,100127.53
2023-11-07T08:20:39.717Z,100117.13
2023-11-07T08:23:06.770Z,100130.69
2023-11-07T08:25:34.331Z,100131.59
2023-11-07T08:28:01.186Z,100135.81
2023-11-07T08:30:27.865Z,100146.19
2023-11-07T08:32:54.706Z,100144.44
2023-11-07T08:35:21.687Z,100146.84
2023-11-07T08:37:51.361Z,100149.59
2023-11-07T08:40:20.924Z,100140.03
2023-11-07T08:42:49.772Z,100147.00
2023-11-07T08:45:19.927Z,100151.34
2023-11-07T08:47:54.689Z,100144.38
2023-11-07T08:50:24.765Z,100140.84
2023-11-07T08:52:51.524Z,100150.28
2023-11-07T08:55:19.247Z,100144.25
2023-11-07T08:57:45.905Z,100146.78
2023-11-07T09:00:14.979Z,100142.41
2023-11-07T09:02:43.711Z,100141.44
2023-11-07T09:05:10.412Z,100147.41
2023-11-07T09:07:37.152Z,100149.97
2023-11-07T09:10:03.848Z,100150.69
2023-11-07T09:12:30.552Z,100148.09
2023-11-07T09:14:57.295Z,100153.22
2023-11-07T09:17:23.998Z,100158.44
2023-11-07T09:19:50.781Z,100154.00
2023-11-07T09:22:17.167Z,100162.72
2023-11-07T09:24:45.094Z,100161.03
2023-11-07T09:27:11.754Z,100161.84
2023-11-07T09:29:41.143Z,100163.56
2023-11-07T09:32:08.806Z,100178.25
2023-11-07T09:34:41.191Z,100180.63
2023-11-07T09:37:08.815Z,100176.38
2023-11-07T09:39:35.605Z,100182.44
2023-11-07T09:42:03.237Z,100178.84
2023-11-07T09:44:29.858Z,100182.44
2023-11-07T09:46:58.819Z,100187.59
2023-11-07T09:49:25.411Z,100187.56
2023-11-07T09:51:55.265Z,100192.72
2023-11-07T09:54:25.902Z,100200.38
2023-11-07T09:56:53.903Z,100196.00
2023-11-07T09:59:38.025Z,100193.34
2023-11-07T10:02:08.220Z,100192.22
2023-11-07T10:04:38.823Z,100207.88
2023-11-07T10:07:05.452Z,100204.38
2023-11-07T10:09:32.805Z,100216.47
2023-11-07T10:12:01.110Z,100219.78
2023-11-07T10:14:28.818Z,100217.16
2023-11-07T10:16:59.647Z,100225.06
2023-11-07T10:19:27.153Z,100218.91
2023-11-07T10:21:54.057Z,100224.06
2023-11-07T10:24:21.407Z,100230.19
2023-11-07T10:27:00.544Z,100229.91
2023-11-07T10:29:29.301Z,100223.88
2023-11-07T10:32:10.942Z,100230.91
2023-11-07T10:34:37.782Z,100225.13
2023-11-07T10:37:06.509Z,100232.03
2023-11-07T10:39:34.301Z,100220.66
2023-11-07T10:42:18.818Z,100225.56
2023-11-07T10:44:46.736Z,100225.50
2023-11-07T10:47:14.356Z,100224.41
2023-11-07T10:49:45.045Z,100225.19
2023-11-07T10:52:11.456Z,100220.47
2023-11-07T10:54:39.280Z,100217.78
2023-11-07T10:57:10.235Z,100221.97
2023-11-07T10:59:41.672Z,100215.09
2023-11-07T11:02:09.668Z,100215.16
2023-11-07T11:04:39.220Z,100216.03
2023-11-07T11:07:08.550Z,100221.97
2023-11-07T11:09:36.382Z,100223.41
2023-11-07T11:12:04.814Z,100223.94
2023-11-07T11:14:31.479Z,100236.78
2023-11-07T11:17:27.276Z,100235.03
2023-11-07T11:20:23.952Z,100239.50
2023-11-07T11:23:07.705Z,100239.94
2023-11-07T11:25:42.986Z,100242.84
2023-11-07T11:28:09.388Z,100235.09
2023-11-07T11:30:41.246Z,100242.88
2023-11-07T11:33:12.486Z,100237.69
2023-11-07T11:35:42.016Z,100237.53
2023-11-07T11:38:24.950Z,100239.91
2023-11-07T11:41:00.621Z,100235.78
2023-11-07T11:43:35.300Z,100240.94
2023-11-07T11:46:18.244Z,100234.94
2023-11-07T11:48:50.599Z,100237.97
2023-11-07T11:51:40.298Z,100234.28
2023-11-07T11:54:07.903Z,100240.31
2023-11-07T11:56:35.716Z,100243.59
2023-11-07T11:59:11.943Z,100245.47
2023-11-07T12:02:04.017Z,100248.66
2023-11-07T12:04:34.301Z,100247.53
2023-11-07T12:07:07.571Z,100246.88
2023-11-07T12:09:35.135Z,100243.69
2023-11-07T12:12:02.285Z,100240.13
2023-11-07T12:14:34.219Z,100240.16
2023-11-07T12:17:01.700Z,100243.69
2023-11-07T12:19:31.076Z,100233.78
2023-11-07T12:21:58.844Z,100230.28
2023-11-07T12:24:26.072Z,100228.75
2023-11-07T12:26:53.369Z,100227.97
2023-11-07T12:29:30.244Z,100225.59
2023-11-07T12:31:56.795Z,100221.25
2023-11-07T12:34:37.995Z,100210.63
2023-11-07T12:37:14.221Z,100216.03
2023-11-07T12:39:42.698Z,100229.25
2023-11-07T12:42:09.910Z,100225.94
2023-11-07T12:44:37.313Z,100222.50
2023-11-07T12:47:07.091Z,100221.41
2023-11-07T12:49:38.310Z,100230.06
2023-11-07T12:52:14.244Z,100228.13
2023-11-07T12:54:41.372Z,100236.72
2023-11-07T12:57:09.803Z,100234.19
2023-11-07T12:59:36.576Z,100233.59
2023-11-07T13:02:04.629Z,100238.72
2023-11-07T13:04:31.104Z,100235.88
2023-11-07T13:06:59.518Z,100238.41
2023-11-07T13:09:32.612Z,100242.81
2023-11-07T13:12:16.420Z,100241.72
2023-11-07T13:14:43.678Z,100240.03
2023-11-07T13:17:12.452Z,100243.69
2023-11-07T13:19:41.794Z,100238.72
2023-11-07T13:22:12.611Z,100243.16
2023-11-07T13:24:39.231Z,100239.75
2023-11-07T13:27:06.452Z,100239.84
2023-11-07T13:29:32.882Z,100241.03
2023-11-07T13:31:59.219Z,100236.53
2023-11-07T13:34:27.528Z,100232.28
2023-11-07T13:36:55.899Z,100229.81
2023-11-07T13:39:25.589Z,100227.28
2023-11-07T13:41:53.159Z,100222.06
2023-11-07T13:44:19.569Z,100227.59
2023-11-07T13:46:46.015Z,100228.59
2023-11-07T13:49:12.571Z,100239.44
2023-11-07T13:51:40.673Z,100240.28
2023-11-07T13:54:09.360Z,100221.38
2023-11-07T13:56:36.105Z,100218.31
2023-11-07T13:59:04.734Z,100222.66
2023-11-07T14:01:31.255Z,100205.38
2023-11-07T14:03:58.822Z,100192.66
2023-11-07T14:06:25.886Z,100189.97
2023-11-07T14:08:52.329Z,100178.84
2023-11-07T14:11:19.006Z,100169.28
2023-11-07T14:13:48.233Z,100164.16
2023-11-07T14:16:16.160Z,100176.53
2023-11-07T14:18:44.673Z,100171.44
2023-11-07T14:21:13.912Z,100176.72
2023-11-07T14:24:12.542Z,100170.59
2023-11-07T14:26:39.251Z,100164.69
2023-11-07T14:29:26.752Z,100151.13
2023-11-07T14:31:56.645Z,100143.38
2023-11-07T14:34:23.242Z,100131.41
2023-11-07T14:36:51.042Z,100140.94
2023-11-07T14:39:17.811Z,100139.97
2023-11-07T14:41:46.184Z,100144.59
2023-11-07T14:44:13.022Z,100146.28
2023-11-07T14:46:41.483Z,100148.81
2023-11-07T14:49:09.361Z,100138.47
2023-11-07T14:51:36.614Z,100139.19
2023-11-07T14:54:03.104Z,100141.63
2023-11-07T14:56:30.142Z,100137.25
2023-11-07T14:58:56.457Z,100146.94
2023-11-07T15:01:23.674Z,100152.13
2023-11-07T15:03:50.134Z,100146.91
2023-11-07T15:06:17.443Z,100146.94
2023-11-07T15:08:44.135Z,100148.75
2023-11-07T15:11:10.520Z,100152.13
2023-11-07T15:13:36.870Z,100153.94
2023-11-07T15:16:03.558Z,100155.63
2023-11-07T15:18:31.740Z,100155.91
2023-11-07T15:20:58.555Z,100162.09
2023-11-07T15:23:24.976Z,100161.47
2023-11-07T15:25:51.366Z,100160.72
2023-11-07T15:28:17.721Z,100168.56
2023-11-07T15:30:44.085Z,100171.31
2023-11-07T15:33:10.604Z,100173.28
2023-11-07T15:35:38.563Z,100167.13
2023-11-07T15:38:09.047Z,100163.63
2023-11-07T15:40:37.152Z,100172.31
2023-11-07T15:43:07.326Z,100173.09
2023-11-07T15:45:35.205Z,100169.66
2023-11-07T15:48:03.078Z,100177.50
2023-11-07T15:50:29.542Z,100185.19
2023-11-07T15:53:06.573Z,100191.38
2023-11-07T15:55:38.082Z,100188.63
2023-11-07T15:58:04.893Z,100187.59
2023-11-07T16:00:31.609Z,100191.91
2023-11-07T16:02:58.247Z,100189.41
2023-11-07T16:05:28.230Z,100191.16
2023-11-07T16:07:54.834Z,100192.94
2023-11-07T16:10:21.445Z,100193.06
2023-11-07T16:12:47.820Z,100193.19
2023-11-07T16:15:15.843Z,100195.91
2023-11-07T16:17:48.718Z,100198.41
2023-11-07T16:20:21.750Z,100201.88
2023-11-07T16:22:48.904Z,100196.56
2023-11-07T16:25:16.766Z,100192.97
2023-11-07T16:27:43.741Z,100188.59
2023-11-07T16:30:10.749Z,100200.94
2023-11-07T16:32:37.976Z,100190.53
2023-11-07T16:35:07.677Z,100194.03
2023-11-07T16:37:36.957Z,100187.94
2023-11-07T16:40:09.258Z,100183.56
2023-11-07T16:42:37.361Z,100186.28
2023-11-07T16:45:05.774Z,100189.00
2023-11-07T16:47:33.093Z,100184.56
2023-11-07T16:49:59.970Z,100184.56
2023-11-07T16:52:26.413Z,100181.09
2023-11-07T16:54:54.275Z,100185.25
2023-11-07T16:57:21.388Z,100193.13
2023-11-07T16:59:48.461Z,100194.03
2023-11-07T17:02:16.382Z,100197.53
2023-11-07T17:04:46.198Z,100192.44
2023-11-07T17:07:13.820Z,100189.81
2023-11-07T17:09:40.830Z,100193.31
2023-11-07T17:12:08.161Z,100194.22
2023-11-07T17:14:34.872Z,100190.94
2023-11-07T17:17:01.377Z,100194.47
2023-11-07T17:19:27.964Z,100188.41
2023-11-07T17:21:56.951Z,100188.25
2023-11-07T17:24:26.627Z,100189.00
2023-11-07T17:26:54.881Z,100190.81
2023-11-07T17:29:22.425Z,100179.56
2023-11-07T17:31:50.117Z,100181.31
2023-11-07T17:34:18.332Z,100177.00
2023-11-07T17:36:47.923Z,100199.44
2023-11-07T17:39:20.707Z,100197.63
2023-11-07T17:41:47.594Z,100211.41
2023-11-07T17:44:18.752Z,100221.00
2023-11-07T17:46:46.035Z,100229.59
2023-11-07T17:49:13.047Z,100235.75
2023-11-07T17:51:39.802Z,100240.09
2023-11-07T17:54:09.487Z,100237.50
2023-11-07T17:56:37.272Z,100240.13
2023-11-07T17:59:04.582Z,100246.13
2023-11-07T18:01:31.260Z,100244.34
2023-11-07T18:03:57.827Z,100246.19
2023-11-07T18:06:28.210Z,100236.53
2023-11-07T18:08:55.137Z,100247.00
2023-11-07T18:11:34.463Z,100244.47
2023-11-07T18:14:01.626Z,100243.56
2023-11-07T18:16:28.623Z,100236.72
2023-11-07T18:18:58.402Z,100236.78
2023-11-07T18:21:27.221Z,100233.34
2023-11-07T18:23:54.185Z,100237.63
2023-11-07T18:26:22.884Z,100241.03
2023-11-07T18:28:50.519Z,100236.59
2023-11-07T18:31:20.154Z,100232.38
2023-11-07T18:33:49.264Z,100238.53
2023-11-07T18:36:18.165Z,100240.34
2023-11-07T18:38:44.955Z,100240.34
2023-11-07T18:41:11.988Z,100236.28
2023-11-07T18:43:38.427Z,100231.16
2023-11-07T18:46:06.514Z,100240.84
2023-11-07T18:48:34.260Z,100232.31
2023-11-07T18:51:00.931Z,100227.34
2023-11-07T18:53:37.004Z,100220.34
2023-11-07T18:56:11.659Z,100222.19
2023-11-07T18:58:38.632Z,100215.38
2023-11-07T19:01:05.103Z,100214.56
2023-11-07T19:03:31.654Z,100204.34
2023-11-07T19:05:58.290Z,100201.03
2023-11-07T19:08:24.856Z,100192.31
2023-11-07T19:10:53.108Z,100186.31
2023-11-07T19:13:19.492Z,100192.47
2023-11-07T19:15:46.083Z,100176.94
2023-11-07T19:18:14.933Z,100182.31
2023-11-07T19:20:42.746Z,100175.34
2023-11-07T19:23:10.172Z,100166.81
2023-11-07T19:25:37.786Z,100168.56
2023-11-07T19:28:04.579Z,100162.63
2023-11-07T19:30:31.064Z,100155.72
2023-11-07T19:32:57.481Z,100157.44
2023-11-07T19:35:24.477Z,100155.59
2023-11-07T19:37:52.602Z,100153.03
2023-11-07T19:40:23.280Z,100150.41
2023-11-07T19:42:50.752Z,100156.44
2023-11-07T19:45:17.335Z,100148.72
2023-11-07T19:47:44.215Z,100152.09
2023-11-07T19:50:11.240Z,100157.34
2023-11-07T19:52:37.920Z,100155.66
2023-11-07T19:55:04.626Z,100153.03
2023-11-07T19:57:31.159Z,100149.75
2023-11-07T19:59:57.550Z,100143.75
2023-11-07T20:02:24.005Z,100139.59
2023-11-07T20:04:52.952Z,100128.28
2023-11-07T20:07:19.464Z,100122.34
2023-11-07T20:09:47.234Z,100115.34
2023-11-07T20:12:13.843Z,100117.91
2023-11-07T20:14:40.297Z,100108.31
2023-11-07T20:17:06.880Z,100110.84
2023-11-07T20:19:33.744Z,100103.06
2023-11-07T20:22:00.221Z,100106.50
2023-11-07T20:24:26.599Z,100109.16
2023-11-07T20:26:53.788Z,100097.84
2023-11-07T20:29:22.079Z,100096.09
2023-11-07T20:31:49.643Z,100087.50
2023-11-07T20:34:16.027Z,100083.91
2023-11-07T20:36:43.203Z,100087.25
2023-11-07T20:39:10.048Z,100086.56
2023-11-07T20:41:37.435Z,100088.34
2023-11-07T20:44:03.926Z,100086.59
2023-11-07T20:46:34.353Z,100092.63
2023-11-07T20:49:06.053Z,100088.41
2023-11-07T20:51:33.364Z,100089.19
2023-11-07T20:53:59.793Z,100087.59
2023-11-07T20:56:29.052Z,100087.59
2023-11-07T20:58:55.951Z,100087.59
2023-11-07T21:01:22.767Z,100094.53
2023-11-07T21:03:50.922Z,100096.28
2023-11-07T21:06:17.571Z,100092.00
2023-11-07T21:08:44.826Z,100091.09
2023-11-07T21:11:13.650Z,100096.38
2023-11-07T21:13:40.104Z,100090.50
2023-11-07T21:16:08.421Z,100087.00
2023-11-07T21:18:35.608Z,100085.25
2023-11-07T21:21:02.428Z,100092.09
2023-11-07T21:23:29.146Z,100083.47
2023-11-07T21:25:55.528Z,100087.91
2023-11-07T21:28:22.034Z,100079.31
2023-11-07T21:30:48.777Z,100080.16
2023-11-07T21:33:16.640Z,100089.69
2023-11-07T21:35:43.918Z,100081.16
2023-11-07T21:38:10.680Z,100078.63
2023-11-07T21:40:40.551Z,100099.44
2023-11-07T21:43:07.781Z,100082.97
2023-11-07T21:45:34.308Z,100075.16
2023-11-07T21:48:00.985Z,100085.44
2023-11-07T21:50:28.110Z,100090.59
2023-11-07T21:52:54.981Z,100088.00
2023-11-07T21:55:22.175Z,100087.00
2023-11-07T21:57:49.009Z,100089.59
2023-11-07T22:00:16.472Z,100098.25
2023-11-07T22:02:44.653Z,100112.06
2023-11-07T22:05:16.159Z,100108.72
2023-11-07T22:07:43.688Z,100113.06
2023-11-07T22:10:14.986Z,100113.06
2023-11-07T22:12:45.022Z,100119.97
2023-11-07T22:15:14.800Z,100114.03
2023-11-07T22:17:45.075Z,100118.34
2023-11-07T22:20:15.217Z,100124.41
2023-11-07T22:22:43.747Z,100115.69
2023-11-07T22:25:10.467Z,100120.91
2023-11-07T22:27:37.652Z,100120.03
2023-11-07T22:30:10.071Z,100126.97
2023-11-07T22:32:38.382Z,100129.53
2023-11-07T22:35:05.730Z,100131.28
2023-11-07T22:37:32.458Z,100132.25
2023-11-07T22:39:58.826Z,100131.38
2023-11-07T22:42:25.543Z,100127.81
2023-11-07T22:44:52.413Z,100122.63
2023-11-07T22:47:18.905Z,100131.28
2023-11-07T22:49:45.383Z,100117.34
2023-11-07T22:52:14.602Z,100125.94
2023-11-07T22:54:41.418Z,100120.78
2023-11-07T22:57:08.030Z,100127.72
2023-11-07T22:59:38.980Z,100128.47
2023-11-07T23:02:05.731Z,100133.72
2023-11-07T23:04:33.413Z,100131.91
2023-11-07T23:07:00.195Z,100137.94
2023-11-07T23:09:27.141Z,100133.56
2023-11-07T23:11:54.040Z,100133.56
2023-11-07T23:14:23.631Z,100136.91
2023-11-07T23:16:51.805Z,100140.34
2023-11-07T23:19:18.272Z,100149.78
2023-11-07T23:21:44.954Z,100150.59
2023-11-07T23:24:11.420Z,100146.28
2023-11-07T23:26:42.041Z,100157.38
2023-11-07T23:29:14.619Z,100157.38
2023-11-07T23:31:40.973Z,100158.13
2023-11-07T23:34:07.678Z,100161.53
2023-11-07T23:36:34.516Z,100159.78
2023-11-07T23:39:00.911Z,100155.59
2023-11-07T23:41:27.497Z,100166.91
2023-11-07T23:43:53.867Z,100147.88
2023-11-07T23:46:20.242Z,100152.09
2023-11-07T23:48:46.895Z,100158.97
2023-11-07T23:51:13.356Z,100153.00
2023-11-07T23:53:39.891Z,100152.94
2023-11-07T23:56:06.626Z,100152.03
2023-11-07T23:58:32.997Z,100152.06
